Time;durP1;ratioP1;P1;durP2;ratioP2;P2;SDS_P1;SDS_P2;PMS_P1;PMS_P2;Temp;Humidity;BMP_temperature;BMP_pressure;BME280_temperature;BME280_humidity;BME280_pressure;Samples;Min_cycle;Max_cycle;Signal;HPM_P1;HPM_P2
2024/02/02 00:01:57;;;;;;;22.90;3.88;;;;;;;4.19;100.00;103147.66;5075973;28;20119;-76
2024/02/02 00:04:23;;;;;;;25.13;4.95;;;;;;;4.16;100.00;103145.13;5094073;28;20059;-76
2024/02/02 00:06:49;;;;;;;20.95;3.90;;;;;;;4.13;100.00;103166.28;5075707;28;20040;-75
2024/02/02 00:09:14;;;;;;;24.40;4.35;;;;;;;4.11;100.00;103168.09;5093952;28;20031;-76
2024/02/02 00:11:40;;;;;;;25.73;4.63;;;;;;;4.08;100.00;103155.84;5058575;28;20034;-76
2024/02/02 00:14:06;;;;;;;25.48;4.78;;;;;;;4.05;100.00;103158.56;5074499;28;20190;-75
2024/02/02 00:16:31;;;;;;;22.65;3.83;;;;;;;4.03;100.00;103165.63;5075525;28;20036;-75
2024/02/02 00:18:57;;;;;;;24.92;4.00;;;;;;;4.01;100.00;103170.94;5093987;28;20375;-75
2024/02/02 00:21:22;;;;;;;26.40;4.18;;;;;;;4.05;100.00;103171.75;5059181;28;20036;-76
2024/02/02 00:23:47;;;;;;;29.60;3.92;;;;;;;4.11;100.00;103163.69;5075417;28;20120;-77
2024/02/02 00:26:13;;;;;;;25.13;3.42;;;;;;;4.16;100.00;103174.09;5058361;28;20035;-76
2024/02/02 00:28:38;;;;;;;24.00;4.07;;;;;;;4.25;100.00;103173.84;5093417;28;20048;-76
2024/02/02 00:31:04;;;;;;;24.35;3.95;;;;;;;4.34;100.00;103168.31;5093222;28;20064;-77
2024/02/02 00:33:31;;;;;;;29.63;4.35;;;;;;;4.38;100.00;103153.31;5075443;28;20491;-77
2024/02/02 00:35:56;;;;;;;25.33;3.92;;;;;;;4.40;100.00;103141.81;5074981;28;20340;-77
2024/02/02 00:38:31;;;;;;;25.63;4.65;;;;;;;4.44;100.00;103139.94;5076388;28;20127;-77
2024/02/02 00:40:56;;;;;;;32.92;4.80;;;;;;;4.49;100.00;103140.66;5093753;28;20064;-77
2024/02/02 00:43:22;;;;;;;30.90;5.30;;;;;;;4.50;100.00;103145.06;5074610;28;20082;-77
2024/02/02 00:45:47;;;;;;;35.42;4.38;;;;;;;4.53;100.00;103149.38;5093332;28;20032;-76
2024/02/02 00:48:13;;;;;;;26.92;4.55;;;;;;;4.56;100.00;103144.88;5075418;28;20096;-76
2024/02/02 00:50:38;;;;;;;29.67;4.65;;;;;;;4.57;100.00;103137.84;5076210;28;20070;-76
2024/02/02 00:53:04;;;;;;;26.42;3.80;;;;;;;4.58;100.00;103140.44;5075097;28;20145;-77
2024/02/02 00:55:29;;;;;;;32.17;5.22;;;;;;;4.61;100.00;103135.97;5093281;28;20451;-77
2024/02/02 00:57:55;;;;;;;30.98;4.43;;;;;;;4.61;100.00;103128.06;5093831;28;20032;-76
2024/02/02 01:00:20;;;;;;;21.08;4.28;;;;;;;4.62;100.00;103121.88;5075046;28;20461;-77
2024/02/02 01:02:45;;;;;;;29.65;4.93;;;;;;;4.62;100.00;103114.84;5058172;28;20442;-76
2024/02/02 01:05:12;;;;;;;33.15;5.35;;;;;;;4.65;100.00;103122.66;5092533;28;20040;-85
2024/02/02 01:07:38;;;;;;;36.13;5.32;;;;;;;4.63;100.00;103119.22;5092163;28;20458;-85
2024/02/02 01:10:05;;;;;;;31.75;6.75;;;;;;;4.64;100.00;103113.00;5074361;28;20063;-85
2024/02/02 01:12:31;;;;;;;33.38;5.88;;;;;;;4.65;100.00;103113.88;5092432;28;20028;-85
2024/02/02 01:14:57;;;;;;;29.98;5.68;;;;;;;4.64;100.00;103126.19;5092666;28;20034;-86
2024/02/02 01:17:22;;;;;;;35.45;5.07;;;;;;;4.64;100.00;103123.56;5092265;28;20457;-85
2024/02/02 01:19:48;;;;;;;30.25;6.13;;;;;;;4.65;100.00;103113.88;5092178;28;20085;-85
2024/02/02 01:22:14;;;;;;;26.00;5.38;;;;;;;4.65;100.00;103121.78;5092052;28;20092;-85
2024/02/02 01:24:39;;;;;;;41.67;8.82;;;;;;;4.66;100.00;103103.28;5073628;28;20036;-86
2024/02/02 01:27:04;;;;;;;30.92;5.88;;;;;;;4.66;100.00;103094.50;5091671;28;20052;-85
2024/02/02 01:29:30;;;;;;;27.77;4.57;;;;;;;4.67;100.00;103093.59;5092849;28;20379;-85
2024/02/02 01:31:55;;;;;;;21.13;4.80;;;;;;;4.65;100.00;103090.16;5092212;28;20036;-85
2024/02/02 01:34:22;;;;;;;26.83;5.43;;;;;;;4.69;100.00;103083.88;5091894;28;20118;-86
2024/02/02 01:36:48;;;;;;;33.50;5.50;;;;;;;4.69;100.00;103082.09;5092295;28;20036;-86
2024/02/02 01:39:13;;;;;;;30.85;5.28;;;;;;;4.69;100.00;103079.47;5092008;28;20096;-85
2024/02/02 01:41:39;;;;;;;32.65;4.95;;;;;;;4.69;100.00;103062.78;5091776;28;20028;-84
2024/02/02 01:44:05;;;;;;;26.00;5.18;;;;;;;4.71;100.00;103056.53;5091706;28;20473;-86
2024/02/02 01:46:31;;;;;;;29.02;5.88;;;;;;;4.72;100.00;103046.88;5091925;28;20055;-86
2024/02/02 01:48:57;;;;;;;22.00;4.97;;;;;;;4.76;100.00;103049.38;5091481;28;20076;-84
2024/02/02 01:51:23;;;;;;;22.92;4.95;;;;;;;4.76;100.00;103056.38;5091563;28;20473;-85
2024/02/02 01:53:49;;;;;;;21.80;4.28;;;;;;;4.78;100.00;103057.22;5092124;28;20032;-85
2024/02/02 01:56:15;;;;;;;26.85;5.53;;;;;;;4.77;100.00;103047.56;5091444;28;20028;-84
2024/02/02 01:58:40;;;;;;;29.75;4.80;;;;;;;4.81;100.00;103054.50;5091563;28;20380;-85
2024/02/02 02:01:06;;;;;;;21.80;4.07;;;;;;;4.83;100.00;103031.56;5091321;28;20039;-84
2024/02/02 02:03:31;;;;;;;27.00;5.07;;;;;;;4.84;100.00;103024.53;5091138;28;20500;-85
2024/02/02 02:05:57;;;;;;;27.88;4.68;;;;;;;4.88;100.00;103031.41;5091445;28;20028;-85
2024/02/02 02:08:22;;;;;;;25.63;4.28;;;;;;;4.85;100.00;103026.22;5056041;28;20055;-85
2024/02/02 02:10:48;;;;;;;30.27;4.68;;;;;;;4.83;100.00;103034.19;5091044;28;20051;-85
2024/02/02 02:13:13;;;;;;;29.00;4.78;;;;;;;4.83;100.00;103028.06;5090994;28;20035;-84
2024/02/02 02:15:39;;;;;;;23.50;4.57;;;;;;;4.83;100.00;103028.91;5091349;28;20405;-86
2024/02/02 02:18:04;;;;;;;23.27;4.68;;;;;;;4.83;100.00;103028.06;5091464;28;20082;-85
2024/02/02 02:20:30;;;;;;;30.80;5.55;;;;;;;4.82;100.00;103026.31;5090856;28;20028;-85
2024/02/02 02:22:55;;;;;;;32.03;5.32;;;;;;;4.75;100.00;103026.53;5090720;28;20066;-85
2024/02/02 02:25:21;;;;;;;28.95;5.35;;;;;;;4.71;100.00;103038.06;5091069;28;20364;-85
2024/02/02 02:27:46;;;;;;;27.20;4.50;;;;;;;4.73;100.00;103035.38;5091127;28;20055;-84
2024/02/02 02:30:13;;;;;;;23.67;3.92;;;;;;;4.74;100.00;103042.41;5091354;28;20032;-84
2024/02/02 02:32:39;;;;;;;16.98;4.10;;;;;;;4.75;100.00;103020.41;5091200;28;20032;-85
2024/02/02 02:35:04;;;;;;;19.23;4.20;;;;;;;4.73;100.00;103022.19;5091427;28;20035;-85
2024/02/02 02:37:30;;;;;;;25.85;4.75;;;;;;;4.69;100.00;103023.22;5092432;28;20047;-85
2024/02/02 02:39:56;;;;;;;27.58;4.60;;;;;;;4.68;100.00;103024.13;5095448;28;20103;-85
2024/02/02 02:42:21;;;;;;;26.77;5.60;;;;;;;4.63;100.00;103024.28;5076251;28;20063;-85
2024/02/02 02:44:46;;;;;;;23.83;4.43;;;;;;;4.55;100.00;103015.72;5094848;28;20169;-85
2024/02/02 02:47:12;;;;;;;35.25;5.63;;;;;;;4.50;100.00;103012.38;5094331;28;20043;-83
2024/02/02 02:49:38;;;;;;;32.50;4.65;;;;;;;4.43;100.00;103009.03;5094460;28;20108;-85
2024/02/02 02:52:04;;;;;;;33.85;4.82;;;;;;;4.37;100.00;103019.78;5095075;28;20039;-85
2024/02/02 02:54:29;;;;;;;31.45;4.80;;;;;;;4.29;100.00;103020.00;5094478;28;20108;-84
2024/02/02 02:56:55;;;;;;;25.58;5.03;;;;;;;4.23;100.00;103020.19;5094529;28;20487;-84
2024/02/02 02:59:21;;;;;;;35.30;5.30;;;;;;;4.15;100.00;103024.78;5076071;28;20028;-84
2024/02/02 03:01:47;;;;;;;35.75;5.10;;;;;;;4.17;100.00;103020.38;5094848;28;20095;-85
2024/02/02 03:04:13;;;;;;;25.38;4.28;;;;;;;4.13;100.00;103006.41;5094361;28;20024;-84
2024/02/02 03:06:38;;;;;;;34.42;4.93;;;;;;;4.13;100.00;103010.81;5094228;28;20418;-84
2024/02/02 03:09:04;;;;;;;24.58;4.28;;;;;;;4.12;100.00;103014.34;5094352;28;20459;-85
2024/02/02 03:11:30;;;;;;;26.98;4.53;;;;;;;4.08;100.00;103007.47;5075741;28;20074;-84
2024/02/02 03:13:55;;;;;;;30.95;4.30;;;;;;;4.10;100.00;103005.63;5094593;28;20047;-85
2024/02/02 03:16:20;;;;;;;26.48;4.05;;;;;;;4.06;100.00;103003.09;5094126;28;20049;-84
2024/02/02 03:18:46;;;;;;;26.65;4.35;;;;;;;4.09;100.00;103001.25;5094169;28;20056;-85
2024/02/02 03:21:11;;;;;;;32.50;4.70;;;;;;;4.09;100.00;102994.25;5094148;28;20460;-85
2024/02/02 03:23:36;;;;;;;22.17;3.90;;;;;;;4.12;100.00;102985.38;5094109;28;20028;-84
2024/02/02 03:26:02;;;;;;;24.77;4.15;;;;;;;4.16;100.00;102984.38;5093866;28;20032;-84
2024/02/02 03:28:27;;;;;;;33.28;4.20;;;;;;;4.16;100.00;102979.97;5094281;28;20155;-83
2024/02/02 03:30:53;;;;;;;27.75;4.22;;;;;;;4.18;100.00;102977.28;5094013;28;20430;-85
2024/02/02 03:33:18;;;;;;;20.05;4.20;;;;;;;4.14;100.00;102980.94;5075820;28;20028;-80
2024/02/02 03:35:43;;;;;;;24.15;5.00;;;;;;;4.14;100.00;102963.34;5093703;28;20051;-83
2024/02/02 03:38:09;;;;;;;24.45;4.47;;;;;;;4.21;100.00;102964.00;5093953;28;20119;-84
2024/02/02 03:40:34;;;;;;;21.38;3.70;;;;;;;4.30;100.00;102947.06;5093827;28;20032;-83
2024/02/02 03:43:00;;;;;;;26.67;4.22;;;;;;;4.31;100.00;102954.91;5093431;28;20044;-83
2024/02/02 03:45:25;;;;;;;21.38;3.53;;;;;;;4.32;100.00;102961.94;5093685;28;20036;-83
2024/02/02 03:47:51;;;;;;;26.05;4.43;;;;;;;4.33;100.00;102960.16;5093761;28;20036;-84
2024/02/02 03:50:16;;;;;;;26.77;4.47;;;;;;;4.40;100.00;102954.66;5092514;28;20378;-84
2024/02/02 03:52:42;;;;;;;17.67;3.30;;;;;;;4.40;100.00;102953.78;5075065;28;20380;-83
2024/02/02 03:55:07;;;;;;;27.55;4.03;;;;;;;4.41;100.00;102959.00;5093477;28;20154;-83
2024/02/02 03:57:33;;;;;;;25.38;3.95;;;;;;;4.48;100.00;102951.78;5093891;28;20461;-84
2024/02/02 03:59:59;;;;;;;24.77;3.53;;;;;;;4.57;100.00;102946.22;5093821;28;20092;-83
2024/02/02 04:02:24;;;;;;;29.77;3.78;;;;;;;4.65;100.00;102943.31;5093638;28;20119;-83
2024/02/02 04:04:49;;;;;;;29.05;5.28;;;;;;;4.64;100.00;102944.22;5093024;28;20055;-83
2024/02/02 04:07:15;;;;;;;20.90;4.07;;;;;;;4.68;100.00;102940.59;5093080;28;20033;-84
2024/02/02 04:09:40;;;;;;;33.83;4.95;;;;;;;4.68;100.00;102939.75;5093450;28;20036;-82
2024/02/02 04:12:06;;;;;;;19.10;4.20;;;;;;;4.65;100.00;102935.41;5058522;28;20032;-83
2024/02/02 04:14:31;;;;;;;30.50;3.90;;;;;;;4.66;100.00;102928.34;5092739;28;20046;-82
2024/02/02 04:16:57;;;;;;;19.65;3.53;;;;;;;4.59;100.00;102923.28;5093448;28;20063;-83
2024/02/02 04:19:22;;;;;;;15.68;3.00;;;;;;;4.59;100.00;102931.19;5093417;28;20414;-83
2024/02/02 04:21:48;;;;;;;25.83;4.18;;;;;;;4.58;100.00;102928.59;5092993;28;20361;-84
2024/02/02 04:24:13;;;;;;;21.92;3.67;;;;;;;4.54;100.00;102925.22;5092976;28;20036;-84
2024/02/02 04:26:38;;;;;;;31.48;4.32;;;;;;;4.48;100.00;102940.34;5092172;28;20100;-84
2024/02/02 04:29:04;;;;;;;23.10;3.40;;;;;;;4.46;100.00;102926.38;5092751;28;20105;-84
2024/02/02 04:31:29;;;;;;;21.70;3.90;;;;;;;4.49;100.00;102932.41;5092873;28;20108;-84
2024/02/02 04:33:55;;;;;;;22.15;4.00;;;;;;;4.48;100.00;102946.50;5092818;28;20032;-84
2024/02/02 04:36:20;;;;;;;31.92;5.05;;;;;;;4.48;100.00;102935.09;5092352;28;20032;-84
2024/02/02 04:38:46;;;;;;;21.48;3.97;;;;;;;4.52;100.00;102931.44;5092339;28;20487;-84
2024/02/02 04:41:11;;;;;;;22.20;4.50;;;;;;;4.54;100.00;102924.38;5092259;28;20088;-84
2024/02/02 04:43:36;;;;;;;38.28;4.28;;;;;;;4.52;100.00;102919.16;5092657;28;20032;-84
2024/02/02 04:46:02;;;;;;;33.13;4.70;;;;;;;4.52;100.00;102920.91;5074187;28;20135;-84
2024/02/02 04:48:27;;;;;;;27.08;3.78;;;;;;;4.50;100.00;102905.13;5074076;28;20088;-82
2024/02/02 04:50:53;;;;;;;17.40;3.25;;;;;;;4.51;100.00;102903.34;5092095;28;20052;-85
2024/02/02 04:53:18;;;;;;;24.13;3.47;;;;;;;4.54;100.00;102909.41;5092039;28;20473;-84
2024/02/02 04:55:43;;;;;;;24.58;3.83;;;;;;;4.54;100.00;102905.91;5092410;28;20155;-84
2024/02/02 04:58:09;;;;;;;22.38;3.53;;;;;;;4.54;100.00;102908.56;5092765;28;20361;-84
2024/02/02 05:00:35;;;;;;;21.48;4.43;;;;;;;4.55;100.00;102903.22;5091790;28;20126;-83
2024/02/02 05:03:01;;;;;;;28.90;3.75;;;;;;;4.53;100.00;102902.41;5092543;28;20363;-83
2024/02/02 05:05:27;;;;;;;27.30;4.18;;;;;;;4.54;100.00;102903.28;5092330;28;20356;-84
2024/02/02 05:07:52;;;;;;;21.85;3.03;;;;;;;4.55;100.00;102897.06;5074018;28;20107;-84
2024/02/02 05:10:17;;;;;;;20.52;3.70;;;;;;;4.56;100.00;102886.47;5073886;28;20498;-83
2024/02/02 05:12:44;;;;;;;30.30;4.63;;;;;;;4.56;100.00;102891.75;5092012;28;20123;-83
2024/02/02 05:15:09;;;;;;;26.45;3.60;;;;;;;4.52;100.00;102892.78;5091597;28;20055;-83
2024/02/02 05:17:35;;;;;;;31.50;4.63;;;;;;;4.59;100.00;102896.06;5091919;28;20399;-82
2024/02/02 05:20:02;;;;;;;26.98;3.45;;;;;;;4.57;100.00;102884.72;5073761;28;20468;-83
2024/02/02 05:22:28;;;;;;;25.50;4.03;;;;;;;4.54;100.00;102890.94;5091908;28;20062;-83
2024/02/02 05:24:53;;;;;;;26.88;4.93;;;;;;;4.57;100.00;102887.34;5092084;28;20040;-83
2024/02/02 05:27:18;;;;;;;36.92;5.07;;;;;;;4.53;100.00;102886.56;5091685;28;20052;-83
2024/02/02 05:29:44;;;;;;;26.70;5.03;;;;;;;4.55;100.00;102886.53;5091507;28;20111;-83
2024/02/02 05:32:10;;;;;;;26.65;3.50;;;;;;;4.54;100.00;102896.22;5091460;28;20078;-83
2024/02/02 05:34:35;;;;;;;20.95;3.33;;;;;;;4.53;100.00;102897.13;5091421;28;20028;-82
2024/02/02 05:37:01;;;;;;;24.67;3.33;;;;;;;4.51;100.00;102890.16;5091669;28;20039;-83
2024/02/02 05:39:27;;;;;;;26.67;3.28;;;;;;;4.54;100.00;102892.72;5073734;28;20130;-83
2024/02/02 05:41:52;;;;;;;25.67;4.05;;;;;;;4.55;100.00;102897.97;5091269;28;20039;-84
2024/02/02 05:44:17;;;;;;;21.45;3.22;;;;;;;4.58;100.00;102883.78;5091894;28;20032;-84
2024/02/02 05:46:43;;;;;;;18.85;3.60;;;;;;;4.57;100.00;102898.75;5091236;28;20114;-83
2024/02/02 05:49:08;;;;;;;22.77;3.60;;;;;;;4.67;100.00;102901.97;5091633;28;20066;-84
2024/02/02 05:51:34;;;;;;;34.90;4.13;;;;;;;4.64;100.00;102899.41;5091520;28;20070;-84
2024/02/02 05:53:59;;;;;;;25.27;4.10;;;;;;;4.64;100.00;102896.75;5091149;28;20441;-84
2024/02/02 05:56:24;;;;;;;21.05;3.58;;;;;;;4.62;100.00;102906.50;5091428;28;20032;-82
2024/02/02 05:58:50;;;;;;;22.25;3.90;;;;;;;4.61;100.00;102896.03;5091629;28;20024;-83
2024/02/02 06:01:16;;;;;;;18.00;3.20;;;;;;;4.59;100.00;102896.91;5091738;28;20159;-83
2024/02/02 06:03:41;;;;;;;32.20;3.13;;;;;;;4.59;100.00;102899.56;5091409;28;20034;-82
2024/02/02 06:06:07;;;;;;;27.05;3.65;;;;;;;4.61;100.00;102893.38;5073224;28;20422;-82
2024/02/02 06:08:32;;;;;;;26.85;3.63;;;;;;;4.61;100.00;102898.66;5091706;28;20415;-82
2024/02/02 06:10:58;;;;;;;23.63;3.47;;;;;;;4.61;100.00;102896.03;5090963;28;20507;-83
2024/02/02 06:13:23;;;;;;;27.17;4.72;;;;;;;4.62;100.00;102897.75;5090501;28;20119;-83
2024/02/02 06:15:48;;;;;;;28.08;4.20;;;;;;;4.60;100.00;102903.06;5091112;28;20333;-82
2024/02/02 06:18:16;;;;;;;23.52;3.78;;;;;;;4.60;100.00;102895.16;5073331;28;20099;-84
2024/02/02 06:20:41;;;;;;;27.00;3.92;;;;;;;4.58;100.00;102897.84;5091241;28;20028;-81
2024/02/02 06:23:07;;;;;;;22.70;3.40;;;;;;;4.58;100.00;102897.84;5090994;28;20055;-82
2024/02/02 06:25:32;;;;;;;25.30;4.68;;;;;;;4.59;100.00;102894.28;5090836;28;20059;-83
2024/02/02 06:27:58;;;;;;;24.42;3.55;;;;;;;4.55;100.00;102897.06;5090808;28;20139;-83
2024/02/02 06:30:23;;;;;;;20.80;3.50;;;;;;;4.53;100.00;102898.91;5091272;28;20032;-81
2024/02/02 06:32:49;;;;;;;27.83;4.10;;;;;;;4.53;100.00;102896.28;5091211;28;20115;-83
2024/02/02 06:35:17;;;;;;;26.35;3.75;;;;;;;4.51;100.00;102904.22;5072574;28;20098;-81
2024/02/02 06:37:43;;;;;;;32.78;4.43;;;;;;;4.50;100.00;102902.50;5090964;28;20040;-82
2024/02/02 06:40:09;;;;;;;21.75;3.42;;;;;;;4.48;100.00;102901.69;5090589;28;20130;-83
2024/02/02 06:42:34;;;;;;;24.88;3.05;;;;;;;4.52;100.00;102900.69;5072546;28;20120;-84
2024/02/02 06:45:00;;;;;;;33.83;4.38;;;;;;;4.53;100.00;102893.63;5090362;28;20537;-83
2024/02/02 06:47:25;;;;;;;24.42;4.43;;;;;;;4.52;100.00;102884.88;5072433;28;20036;-82
2024/02/02 06:49:51;;;;;;;25.10;4.15;;;;;;;4.50;100.00;102888.47;5072339;28;20105;-84
2024/02/02 06:52:17;;;;;;;27.85;4.20;;;;;;;4.49;100.00;102890.22;5072353;28;20135;-82
2024/02/02 06:54:43;;;;;;;34.67;4.30;;;;;;;4.50;100.00;102891.09;5090035;28;20028;-84
2024/02/02 06:57:09;;;;;;;27.85;4.22;;;;;;;4.53;100.00;102891.00;5090211;28;20028;-82
2024/02/02 06:59:35;;;;;;;16.65;3.47;;;;;;;4.52;100.00;102884.00;5055102;28;20047;-82
2024/02/02 07:02:11;;;;;;;22.27;4.43;;;;;;;4.52;100.00;102891.91;5090646;28;20042;-82
2024/02/02 07:04:38;;;;;;;18.70;3.92;;;;;;;4.51;100.00;102888.41;5090995;28;20028;-82
2024/02/02 07:07:03;;;;;;;23.75;3.90;;;;;;;4.50;100.00;102885.81;5090385;28;20028;-84
2024/02/02 07:09:31;;;;;;;31.95;4.95;;;;;;;4.46;100.00;102890.31;5072045;28;20033;-81
2024/02/02 07:12:09;;;;;;;34.58;3.75;;;;;;;4.46;100.00;102894.75;5090248;28;20035;-82
2024/02/02 07:14:43;;;;;;;31.15;4.07;;;;;;;4.47;100.00;102893.84;5089858;28;20028;-84
2024/02/02 07:17:24;;;;;;;36.55;5.22;;;;;;;4.50;100.00;102885.81;5090527;28;20108;-82
2024/02/02 07:19:49;;;;;;;36.53;4.93;;;;;;;4.47;100.00;102886.78;5090643;28;20131;-83
2024/02/02 07:22:32;;;;;;;25.23;3.78;;;;;;;4.48;100.00;102892.91;5071949;28;20176;-85
2024/02/02 07:24:58;;;;;;;29.83;4.13;;;;;;;4.46;100.00;102885.03;5093366;28;20497;-82
2024/02/02 07:27:46;;;;;;;19.58;3.17;;;;;;;4.49;100.00;102879.66;5093638;28;20128;-83
2024/02/02 07:30:22;;;;;;;17.00;3.47;;;;;;;4.48;100.00;102890.25;5093419;28;20051;-82
2024/02/02 07:32:49;;;;;;;20.10;3.72;;;;;;;4.51;100.00;102885.78;5075755;28;20452;-82
2024/02/02 07:35:31;;;;;;;27.65;3.80;;;;;;;4.49;100.00;102890.22;5093851;28;20073;-85
2024/02/02 07:38:02;;;;;;;34.25;4.15;;;;;;;4.52;100.00;102884.00;5093782;28;20028;-84
2024/02/02 07:40:30;;;;;;;20.42;4.18;;;;;;;4.54;100.00;102884.81;5076363;28;20024;-85
2024/02/02 07:42:59;;;;;;;29.30;5.35;;;;;;;4.58;100.00;102875.88;5093384;28;20031;-85
2024/02/02 07:45:25;;;;;;;25.75;4.93;;;;;;;4.59;100.00;102886.38;5093811;28;20068;-84
2024/02/02 07:47:52;;;;;;;35.25;4.68;;;;;;;4.61;100.00;102880.19;5093404;28;20081;-84
2024/02/02 07:50:17;;;;;;;29.35;4.50;;;;;;;4.63;100.00;102883.63;5093371;28;20399;-80
2024/02/02 07:52:42;;;;;;;24.10;4.28;;;;;;;4.66;100.00;102891.44;5093859;28;20097;-79
2024/02/02 07:55:08;;;;;;;26.67;4.03;;;;;;;4.67;100.00;102880.00;5093352;28;20039;-80
2024/02/02 07:57:33;;;;;;;18.98;3.72;;;;;;;4.71;100.00;102874.56;5093881;28;20028;-80
2024/02/02 07:59:59;;;;;;;15.48;3.38;;;;;;;4.69;100.00;102879.03;5075234;28;20093;-79
2024/02/02 08:02:24;;;;;;;24.65;4.40;;;;;;;4.73;100.00;102874.50;5093547;28;20443;-80
2024/02/02 08:04:50;;;;;;;30.90;4.47;;;;;;;4.78;100.00;102875.22;5093311;28;20032;-81
2024/02/02 08:07:15;;;;;;;35.35;4.70;;;;;;;4.82;100.00;102879.50;5093243;28;20032;-82
2024/02/02 08:09:41;;;;;;;19.02;3.38;;;;;;;4.86;100.00;102881.09;5093059;28;20031;-82
2024/02/02 08:12:06;;;;;;;26.48;3.65;;;;;;;4.90;100.00;102885.38;5092845;28;20417;-80
2024/02/02 08:14:32;;;;;;;24.60;3.30;;;;;;;4.93;100.00;102879.13;5074925;28;20052;-82
2024/02/02 08:16:58;;;;;;;28.83;4.53;;;;;;;4.99;100.00;102876.28;5074668;28;20371;-82
2024/02/02 08:19:23;;;;;;;24.65;3.85;;;;;;;5.01;100.00;102869.16;5093078;28;20032;-82
2024/02/02 08:21:49;;;;;;;20.50;3.40;;;;;;;5.08;100.00;102859.25;5092774;28;20479;-81
2024/02/02 08:24:15;;;;;;;35.15;4.90;;;;;;;5.14;100.00;102863.47;5093209;28;20036;-83
2024/02/02 08:26:41;;;;;;;27.30;3.78;;;;;;;5.23;100.00;102852.59;5093004;28;20035;-81
2024/02/02 08:29:06;;;;;;;27.95;4.32;;;;;;;5.29;100.00;102857.63;5074365;28;20044;-81
2024/02/02 08:31:33;;;;;;;24.95;4.25;;;;;;;5.36;100.00;102855.63;5092740;28;20024;-79
2024/02/02 08:33:59;;;;;;;18.48;3.58;;;;;;;5.42;100.00;102868.59;5092344;28;20043;-79
2024/02/02 08:36:24;;;;;;;32.03;4.70;;;;;;;5.50;100.00;102857.78;5091912;28;20309;-79
2024/02/02 08:38:50;;;;;;;33.80;4.13;;;;;;;5.54;100.00;102857.59;5074212;28;20432;-79
2024/02/02 08:41:16;;;;;;;23.63;3.60;;;;;;;5.59;100.00;102853.00;5093051;28;20024;-77
2024/02/02 08:43:42;;;;;;;28.73;3.95;;;;;;;5.62;100.00;102850.25;5074383;28;20069;-79
2024/02/02 08:46:09;;;;;;;22.05;3.63;;;;;;;5.70;100.00;102854.38;5092596;28;20399;-83
2024/02/02 08:48:48;;;;;;;19.20;3.85;;;;;;;5.78;100.00;102845.25;5092545;28;20035;-79
2024/02/02 08:51:22;;;;;;;22.90;3.70;;;;;;;5.82;100.00;102841.56;5092532;28;20036;-78
2024/02/02 08:53:49;;;;;;;36.60;4.15;;;;;;;5.87;100.00;102838.75;5092806;28;20032;-81
2024/02/02 08:56:15;;;;;;;26.80;3.70;;;;;;;5.94;100.00;102840.25;5073744;28;20051;-80
2024/02/02 08:58:41;;;;;;;30.60;4.68;;;;;;;5.99;100.00;102842.72;5092541;28;20075;-79
2024/02/02 09:01:20;;;;;;;27.65;4.10;;;;;;;6.03;100.00;102836.41;5073826;28;20059;-79
2024/02/02 09:03:47;;;;;;;29.13;4.40;;;;;;;6.07;100.00;102840.63;5092723;28;20031;-83
2024/02/02 09:06:31;;;;;;;19.15;3.20;;;;;;;6.14;100.00;102828.91;5091960;28;20066;-79
2024/02/02 09:08:58;;;;;;;28.48;4.60;;;;;;;6.21;100.00;102832.19;5073925;28;20093;-82
2024/02/02 09:11:23;;;;;;;35.65;4.68;;;;;;;6.21;100.00;102837.47;5091902;28;20162;-81
2024/02/02 09:14:04;;;;;;;33.00;4.95;;;;;;;6.27;100.00;102837.22;5091924;28;20115;-80
2024/02/02 09:16:51;;;;;;;27.85;4.97;;;;;;;6.33;100.00;102842.25;5091878;28;20027;-84
2024/02/02 09:19:29;;;;;;;25.58;4.68;;;;;;;6.41;100.00;102830.50;5072936;28;20030;-81
2024/02/02 09:21:57;;;;;;;33.25;4.63;;;;;;;6.47;100.00;102832.88;5073772;28;20050;-84
2024/02/02 09:24:43;;;;;;;32.05;4.82;;;;;;;6.56;100.00;102829.00;5091962;28;20032;-82
2024/02/02 09:27:32;;;;;;;27.25;4.70;;;;;;;6.65;100.00;102828.59;5091570;28;20031;-80
2024/02/02 09:29:57;;;;;;;35.53;4.45;;;;;;;6.68;100.00;102824.03;5091833;28;20483;-81
2024/02/02 09:32:23;;;;;;;30.25;3.85;;;;;;;6.75;100.00;102831.72;5091255;28;20032;-85
2024/02/02 09:34:49;;;;;;;31.05;4.57;;;;;;;6.85;100.00;102825.09;5091437;28;20032;-81
2024/02/02 09:37:22;;;;;;;27.30;4.28;;;;;;;7.00;100.00;102832.38;5091514;28;20028;-84
2024/02/02 09:39:57;;;;;;;36.40;4.63;;;;;;;7.16;100.00;102826.41;5091530;28;20024;-81
2024/02/02 09:42:28;;;;;;;29.73;4.45;;;;;;;7.33;100.00;102817.69;5091650;28;20456;-81
2024/02/02 09:44:56;;;;;;;;;;;;;;;7.51;100.00;102824.81;5092197;28;20354;-79
2024/02/02 09:47:25;;;;;;;25.77;4.53;;;;;;;7.76;100.00;102821.91;5090908;28;19908;-80
2024/02/02 09:49:50;;;;;;;20.58;4.20;;;;;;;7.82;100.00;102819.88;5091401;28;20484;-78
2024/02/02 09:52:18;;;;;;;25.25;4.40;;;;;;;7.93;100.00;102817.59;5091739;28;20058;-78
2024/02/02 09:55:13;;;;;;;24.52;4.38;;;;;;;8.04;100.00;102815.25;5072740;28;20028;-81
2024/02/02 09:57:49;;;;;;;27.58;4.70;;;;;;;8.15;100.00;102824.47;5091270;28;20492;-80
2024/02/02 10:00:51;;;;;;;33.58;5.72;;;;;;;8.22;100.00;102826.75;5091322;28;20028;-79
2024/02/02 10:03:55;;;;;;;36.65;4.70;;;;;;;8.17;100.00;102822.63;5091285;28;20107;-83
2024/02/02 10:06:47;;;;;;;30.95;4.30;;;;;;;8.30;100.00;102816.66;5073319;28;20344;-80
2024/02/02 10:09:12;;;;;;;;;;;;;;;8.42;100.00;102817.84;5039865;28;20044;-81
2024/02/02 10:12:22;;;;;;;27.67;4.30;;;;;;;8.47;100.00;102815.81;5090999;28;19965;-79
2024/02/02 10:15:13;;;;;;;29.63;5.50;;;;;;;8.78;100.00;102816.09;5034674;28;20340;-79
2024/02/02 10:17:51;;;;;;;33.20;5.22;;;;;;;8.92;100.00;102818.00;5091102;28;20041;-80
2024/02/02 10:20:31;;;;;;;31.60;4.93;;;;;;;9.09;100.00;102812.69;5072648;28;20382;-81
2024/02/02 10:23:16;;;;;;;28.85;5.22;;;;;;;8.96;100.00;102822.22;5091228;28;20498;-79
2024/02/02 10:26:10;;;;;;;40.25;5.20;;;;;;;8.76;100.00;102823.25;5090839;28;20095;-81
2024/02/02 10:28:47;;;;;;;27.08;4.05;;;;;;;8.90;100.00;102812.78;5091387;28;20055;-80
2024/02/02 10:31:48;;;;;;;31.70;5.45;;;;;;;9.02;100.00;102815.72;5090688;28;20031;-79
2024/02/02 10:34:55;;;;;;;31.80;4.68;;;;;;;9.12;100.00;102833.75;5073109;28;20404;-79
2024/02/02 10:37:36;;;;;;;26.80;4.35;;;;;;;9.22;100.00;102827.97;5076325;28;20131;-79
2024/02/02 10:40:08;;;;;;;32.25;4.93;;;;;;;9.22;100.00;102825.31;5090811;28;20032;-81
2024/02/02 10:42:51;;;;;;;22.98;4.07;;;;;;;9.07;100.00;102817.19;5091000;28;20032;-82
2024/02/02 10:45:22;;;;;;;34.38;5.47;;;;;;;9.00;100.00;102816.69;5090966;28;20028;-80
2024/02/02 10:48:25;;;;;;;23.45;3.92;;;;;;;8.79;100.00;102821.31;5090582;28;20387;-81
2024/02/02 10:51:05;;;;;;;34.75;4.90;;;;;;;8.45;100.00;102825.66;5090788;28;20115;-82
2024/02/02 10:53:46;;;;;;;26.05;5.10;;;;;;;8.30;100.00;102821.94;5090389;28;20044;-81
2024/02/02 10:56:35;;;;;;;25.20;4.13;;;;;;;8.33;100.00;102833.34;5090588;28;20024;-81
2024/02/02 10:59:19;;;;;;;26.23;4.93;;;;;;;8.25;100.00;102828.41;5093014;28;20039;-82
2024/02/02 11:01:52;;;;;;;26.08;5.25;;;;;;;8.22;100.00;102847.13;5076090;28;20128;-82
2024/02/02 11:05:01;;;;;;;32.35;5.07;;;;;;;8.12;100.00;102842.28;5094500;28;20036;-81
2024/02/02 11:07:34;;;;;;;23.77;5.45;;;;;;;8.06;100.00;102852.31;5049020;28;20449;-82
2024/02/02 11:10:04;;;;;;;29.35;5.72;;;;;;;7.86;100.00;102866.50;5093905;28;20447;-81
2024/02/02 11:12:38;;;;;;;22.67;4.38;;;;;;;7.83;100.00;102848.94;5093966;28;20365;-81
2024/02/02 11:15:52;;;;;;;26.27;5.05;;;;;;;7.83;100.00;102842.81;5094585;28;20059;-81
2024/02/02 11:18:54;;;;;;;30.63;4.93;;;;;;;7.68;100.00;102850.53;5085031;28;20040;-82
2024/02/02 11:21:38;;;;;;;30.77;6.15;;;;;;;7.54;100.00;102839.72;5093961;28;20067;-82
2024/02/02 11:24:23;;;;;;;25.77;4.72;;;;;;;7.38;100.00;102845.69;5094618;28;20098;-82
2024/02/02 11:26:58;;;;;;;25.95;4.95;;;;;;;7.32;100.00;102848.63;5094782;28;20085;-82